sensor_id;sensor_type;location;lat;lon;timestamp;pressure;altitude;pressure_sealevel;temperature;humidity
21900;BME280;11114;50.658;12.704;2024-02-14T17:02:40;96402.63;;;4.33;96.07
21900;BME280;11114;50.658;12.704;2024-02-14T17:05:36;96400.59;;;4.46;97.23
21900;BME280;11114;50.658;12.704;2024-02-14T17:08:26;96405.38;;;4.60;97.35
21900;BME280;11114;50.658;12.704;2024-02-14T17:11:24;96402.53;;;4.72;96.26
21900;BME280;11114;50.658;12.704;2024-02-14T17:14:22;96396.75;;;4.88;96.33
21900;BME280;11114;50.658;12.704;2024-02-14T17:17:11;96394.56;;;5.02;96.12
21900;BME280;11114;50.658;12.704;2024-02-14T17:20:10;96404.38;;;5.08;93.57
21900;BME280;11114;50.658;12.704;2024-02-14T17:23:00;96392.34;;;5.17;93.96
21900;BME280;11114;50.658;12.704;2024-02-14T17:25:54;96388.19;;;5.24;93.02
21900;BME280;11114;50.658;12.704;2024-02-14T17:28:46;96378.47;;;5.26;92.89
21900;BME280;11114;50.658;12.704;2024-02-14T17:31:58;96400.25;;;5.25;92.50
21900;BME280;11114;50.658;12.704;2024-02-14T17:35:14;96400.25;;;5.25;91.92
21900;BME280;11114;50.658;12.704;2024-02-14T17:38:05;96410.38;;;5.28;92.06
21900;BME280;11114;50.658;12.704;2024-02-14T17:40:52;96404.19;;;5.29;91.38
21900;BME280;11114;50.658;12.704;2024-02-14T17:43:43;96406.97;;;5.27;91.11
21900;BME280;11114;50.658;12.704;2024-02-14T17:46:40;96413.13;;;5.26;91.30
21900;BME280;11114;50.658;12.704;2024-02-14T17:49:34;96415.31;;;5.31;91.24
21900;BME280;11114;50.658;12.704;2024-02-14T17:52:21;96411.16;;;5.38;91.53
21900;BME280;11114;50.658;12.704;2024-02-14T17:55:08;96404.03;;;5.40;91.01
21900;BME280;11114;50.658;12.704;2024-02-14T17:57:59;96404.72;;;5.42;90.67
21900;BME280;11114;50.658;12.704;2024-02-14T18:00:48;96410.91;;;5.41;90.14
21900;BME280;11114;50.658;12.704;2024-02-14T18:03:35;96407.06;;;5.45;90.37
21900;BME280;11114;50.658;12.704;2024-02-14T18:06:21;96403.47;;;5.46;90.14
21900;BME280;11114;50.658;12.704;2024-02-14T18:09:08;96396.63;;;5.45;89.92
21900;BME280;11114;50.658;12.704;2024-02-14T18:11:56;96399.91;;;5.47;89.45
21900;BME280;11114;50.658;12.704;2024-02-14T18:14:43;96399.25;;;5.45;89.68
21900;BME280;11114;50.658;12.704;2024-02-14T18:17:29;96399.91;;;5.47;89.60
21900;BME280;11114;50.658;12.704;2024-02-14T18:20:16;96393.19;;;5.44;89.42
21900;BME280;11114;50.658;12.704;2024-02-14T18:23:02;96386.06;;;5.46;89.41
21900;BME280;11114;50.658;12.704;2024-02-14T18:25:49;96380.72;;;5.48;89.17
21900;BME280;11114;50.658;12.704;2024-02-14T18:28:36;96381.03;;;5.45;89.00
21900;BME280;11114;50.658;12.704;2024-02-14T18:31:22;96388.84;;;5.45;89.07
21900;BME280;11114;50.658;12.704;2024-02-14T18:34:09;96383.75;;;5.43;89.00
21900;BME280;11114;50.658;12.704;2024-02-14T18:36:55;96383.50;;;5.37;88.97
21900;BME280;11114;50.658;12.704;2024-02-14T18:39:42;96383.22;;;5.40;89.05
21900;BME280;11114;50.658;12.704;2024-02-14T18:42:28;96375.56;;;5.38;88.96
21900;BME280;11114;50.658;12.704;2024-02-14T18:45:15;96385.00;;;5.39;89.24
21900;BME280;11114;50.658;12.704;2024-02-14T18:48:04;96393.34;;;5.43;88.91
21900;BME280;11114;50.658;12.704;2024-02-14T18:50:52;96395.81;;;5.44;88.87
21900;BME280;11114;50.658;12.704;2024-02-14T18:53:39;96385.53;;;5.43;88.85
21900;BME280;11114;50.658;12.704;2024-02-14T18:56:25;96388.84;;;5.45;88.92
21900;BME280;11114;50.658;12.704;2024-02-14T18:59:12;96400.31;;;5.42;88.44
21900;BME280;11114;50.658;12.704;2024-02-14T19:02:00;96402.94;;;5.42;88.98
21900;BME280;11114;50.658;12.704;2024-02-14T19:04:46;96387.31;;;5.42;88.87
21900;BME280;11114;50.658;12.704;2024-02-14T19:07:33;96393.06;;;5.46;88.69
21900;BME280;11114;50.658;12.704;2024-02-14T19:10:19;96393.06;;;5.46;88.44
21900;BME280;11114;50.658;12.704;2024-02-14T19:13:05;96376.63;;;5.45;88.63
21900;BME280;11114;50.658;12.704;2024-02-14T19:15:54;96372.22;;;5.46;88.87
21900;BME280;11114;50.658;12.704;2024-02-14T19:18:40;96369.19;;;5.50;88.95
21900;BME280;11114;50.658;12.704;2024-02-14T19:21:27;96378.66;;;5.51;88.88
21900;BME280;11114;50.658;12.704;2024-02-14T19:24:13;96383.03;;;5.50;88.62
21900;BME280;11114;50.658;12.704;2024-02-14T19:26:59;96391.44;;;5.45;88.72
21900;BME280;11114;50.658;12.704;2024-02-14T19:29:46;96394.69;;;5.47;89.09
21900;BME280;11114;50.658;12.704;2024-02-14T19:32:33;96401.28;;;5.50;89.11
21900;BME280;11114;50.658;12.704;2024-02-14T19:35:25;96400.31;;;5.51;89.01
21900;BME280;11114;50.658;12.704;2024-02-14T19:38:12;96405.09;;;5.56;89.33
21900;BME280;11114;50.658;12.704;2024-02-14T19:40:59;96403.97;;;5.58;89.64
21900;BME280;11114;50.658;12.704;2024-02-14T19:43:45;96404.66;;;5.60;89.55
21900;BME280;11114;50.658;12.704;2024-02-14T19:46:31;96402.06;;;5.60;89.66
21900;BME280;11114;50.658;12.704;2024-02-14T19:49:19;96405.63;;;5.59;90.24
21900;BME280;11114;50.658;12.704;2024-02-14T19:52:09;96396.16;;;5.58;90.12
21900;BME280;11114;50.658;12.704;2024-02-14T19:54:59;96397.13;;;5.57;90.14
21900;BME280;11114;50.658;12.704;2024-02-14T19:57:47;96402.06;;;5.60;90.30
21900;BME280;11114;50.658;12.704;2024-02-14T20:00:35;96405.47;;;5.61;90.25
21900;BME280;11114;50.658;12.704;2024-02-14T20:03:22;96396.84;;;5.60;90.32
21900;BME280;11114;50.658;12.704;2024-02-14T20:06:08;96394.09;;;5.62;90.27
21900;BME280;11114;50.658;12.704;2024-02-14T20:08:55;96395.75;;;5.63;90.10
21900;BME280;11114;50.658;12.704;2024-02-14T20:11:46;96393.56;;;5.58;89.77
21900;BME280;11114;50.658;12.704;2024-02-14T20:14:32;96390.81;;;5.60;89.91
21900;BME280;11114;50.658;12.704;2024-02-14T20:17:21;96388.06;;;5.61;90.17
21900;BME280;11114;50.658;12.704;2024-02-14T21:16:13;96393.22;;;5.71;91.95
21900;BME280;11114;50.658;12.704;2024-02-14T21:18:59;96389.94;;;5.69;92.54
21900;BME280;11114;50.658;12.704;2024-02-14T21:21:58;96395.03;;;5.70;92.76
21900;BME280;11114;50.658;12.704;2024-02-14T21:25:25;96388.81;;;5.71;93.33
21900;BME280;11114;50.658;12.704;2024-02-14T21:35:46;96392.53;;;5.78;93.70
21900;BME280;11114;50.658;12.704;2024-02-14T21:39:59;96385.25;;;5.82;93.69
21900;BME280;11114;50.658;12.704;2024-02-14T21:51:51;96393.06;;;5.82;94.86
21900;BME280;11114;50.658;12.704;2024-02-14T22:13:43;96373.19;;;5.71;97.94
21900;BME280;11114;50.658;12.704;2024-02-14T22:16:30;96363.78;;;5.70;98.14
21900;BME280;11114;50.658;12.704;2024-02-14T22:19:18;96367.63;;;5.66;98.23
21900;BME280;11114;50.658;12.704;2024-02-14T22:22:06;96356.81;;;5.61;99.01
21900;BME280;11114;50.658;12.704;2024-02-14T22:24:52;96361.72;;;5.64;99.37
21900;BME280;11114;50.658;12.704;2024-02-14T22:27:38;96361.72;;;5.64;99.38
21900;BME280;11114;50.658;12.704;2024-02-14T22:30:26;96369.09;;;5.69;99.29
21900;BME280;11114;50.658;12.704;2024-02-14T22:33:12;96372.81;;;5.66;99.44
21900;BME280;11114;50.658;12.704;2024-02-14T22:36:01;96358.00;;;5.67;99.35
21900;BME280;11114;50.658;12.704;2024-02-14T22:38:48;96368.72;;;5.64;99.95
21900;BME280;11114;50.658;12.704;2024-02-14T22:41:35;96370.38;;;5.65;100.00
21900;BME280;11114;50.658;12.704;2024-02-14T22:44:24;96366.38;;;5.70;99.68
21900;BME280;11114;50.658;12.704;2024-02-14T22:47:11;96364.84;;;5.68;100.00
